AirNav   Pilot Hours Calculator
 
 784 users online  

85MI Dewind Field Airport
Zeeland, Michigan, USA

GOING TO ZEELAND?


FAA INFORMATION EFFECTIVE 09 SEPTEMBER 2021

Location

FAA Identifier: 85MI
Lat/Long: 42-55-56.4000N 086-00-49.8000W
42-55.940000N 086-00.830000W
42.9323333,-86.0138333
(estimated)
Elevation: 640 ft. / 195 m (estimated)
From city: 10 miles N of ZEELAND, MI
Time zone: UTC -4 (UTC -5 during Standard Time)
Zip code: 49460

Airport Operations

Airport use: Private use. Permission required prior to landing
Activation date: 05/2006
Control tower: no
ARTCC: CHICAGO CENTER
FSS: LANSING FLIGHT SERVICE STATION
Attendance: UNATNDD
Wind indicator: yes
Segmented circle: no

Airport Communications

WX ASOS at BIV (12 nm S): 119.025 (616-394-0190)
WX ASOS at MKG (17 nm NW): PHONE 231-798-1317
WX AWOS-AV at 8D4 (19 nm NE): 132.95

Nearby radio navigation aids

VOR radial/distance  VOR name  Freq  Var
VIOr295/24.3VICTORY VOR/DME115.9504W
PMMr008/28.3PULLMAN VOR/DME112.1000E

Airport Services

Runway Information

Runway 11/29

Dimensions: 2700 x 60 ft. / 823 x 18 m
Surface: asphalt
Runway edge markings: YELLOW CONES
RUNWAY 11  RUNWAY 29
Traffic pattern: leftleft
Displaced threshold: 500 ft.no
Obstructions: 40 ft. pline, marked
MARKED WITH RED BALLS
none
MARKED WITH RED BALLS

Airport Ownership and Management from official FAA records

Ownership: Privately-owned
Owner: GREG & BECKY DEWIND
9150 96TH AVE
ZEELAND, MI 49464
Phone (616) 875-7580
Manager: GREG & BECKY DEWIND
9150 96TH AVE
ZEELAND, MI 49464
Phone (616) 292-4365

Airport Operational Statistics

Aircraft based on the field: 2
Multi engine airplanes: 1
Helicopters: 1
    

Additional Remarks

OWNER DESIRES ARPT NOT BE CHARTED.
FOR CD CTC GREAT LAKES APCH AT 269-459-3344, WHEN APCH CLSD CTC CHICAGO ARTCC AT 630-906-8921.

Instrument Procedures

There are no published instrument procedures at 85MI.

Some nearby airports with instrument procedures:

3GM - Grand Haven Memorial Airpark (10 nm NW)
KBIV - West Michigan Regional Airport (12 nm S)
KMKG - Muskegon County Airport (17 nm NW)
8D4 - Paul C Miller-Sparta Airport (19 nm NE)
KGRR - Gerald R Ford International Airport (22 nm E)
 
Loc | Ops | Rwys | IFR | FBO | Links
Com | Nav | Svcs | Stats | Notes
Area around 85MI (Dewind Field Airport)
 
Road maps at: MapQuest Bing Google
 
Aerial photo
No photo
 
Sectional chart

 
Airport distance calculator
Flying to Dewind Field Airport? Find the distance to fly.

From to 85MI

Sunrise and sunset
Times for 24-Sep-2021
 Local
(UTC-4)
 Zulu
(UTC)
Morning civil twilight07:0611:06
Sunrise07:3511:35
Sunset19:3823:38
Evening civil twilight20:0600:06

Current date and time
Zulu (UTC)  24-Sep-2021 04:14:26
Local (UTC-4)  24-Sep-2021 00:14:26
 
METAR
KBIV 
12nm S 
240353Z AUTO 00000KT 10SM BKN070 OVC100 11/09 A2990 RMK AO2 SLP108 T01110094
KMKG 
17nm NW 
240355Z AUTO 24003KT 10SM BKN090 OVC110 10/08 A2989 RMK AO2 SLP125 T01000083
KGRR 
22nm E 
240353Z 27008KT 10SM FEW050 BKN070 OVC085 11/09 A2989 RMK AO2 RAB33E43 SLP123 LAST P0000 T01110089
TAF
KMKG 
17nm NW 
232233Z 2323/2418 33012KT P6SM FEW022 OVC070 FM240100 32011KT P6SM -SHRA OVC050 FM240600 28006KT P6SM OVC100 FM240900 28005KT P6SM SCT040 FM241400 24010KT P6SM SKC
NOTAMs
Click for the latest NOTAMs
NOTAMs are issued by the DoD/FAA and will open in a separate window not controlled by AirNav.

 

 
 

Would you like to see your business listed on this page?

 If your business provides an interesting product or service to pilots, flight crews, aircraft, or users of the Dewind Field Airport, you should consider listing it here.  To start the listing process, click on the button below
 
Add a business
 

Other Pages about Dewind Field Airport

Update a link
 
Copyright © AirNav, LLC. All rights reserved. Privacy Policy  Contact